Time;durP1;ratioP1;P1;durP2;ratioP2;P2;SDS_P1;SDS_P2;PMS_P1;PMS_P2;Temp;Humidity;BMP_temperature;BMP_pressure;BME280_temperature;BME280_humidity;BME280_pressure;Samples;Min_cycle;Max_cycle;Signal;HPM_P1;HPM_P2
2022/12/31 00:02:22;;;;;;;1.10;0.20;;;;;;;11.78;100.00;99901.59;5043709;28;20116;-84
2022/12/31 00:09:28;;;;;;;2.45;0.47;;;;;;;11.99;100.00;99911.59;5062428;28;20462;-84
2022/12/31 00:13:36;;;;;;;2.13;0.40;;;;;;;12.04;100.00;99920.00;5052571;28;20090;-84
2022/12/31 00:21:47;;;;;;;1.35;0.10;;;;;;;12.08;100.00;99924.06;5057194;28;20047;-84
2022/12/31 00:25:35;;;;;;;0.40;0.10;;;;;;;12.10;100.00;99919.56;5062905;28;20048;-84
2022/12/31 00:29:26;;;;;;;1.75;0.38;;;;;;;12.04;100.00;99904.28;5046776;28;20093;-84
2022/12/31 00:33:29;;;;;;;0.35;0.10;;;;;;;12.08;100.00;99903.09;5062211;28;20052;-84
2022/12/31 00:42:34;;;;;;;;;;;;;;;;;;;;;
2022/12/31 00:45:58;;;;;;;1.95;0.20;;;;;;;12.17;100.00;99917.38;4968339;28;20080;-83
2022/12/31 00:49:11;;;;;;;0.52;0.10;;;;;;;12.20;100.00;99914.53;4987596;28;20547;-83
2022/12/31 00:52:28;;;;;;;1.00;0.20;;;;;;;12.21;99.75;99916.22;5052241;28;20097;-85
2022/12/31 00:55:58;;;;;;;0.50;0.15;;;;;;;12.23;99.44;99930.06;5062221;28;20094;-85
2022/12/31 01:03:19;;;;;;;0.15;0.00;;;;;;;12.42;97.37;99924.38;5062610;28;20083;-85
2022/12/31 01:06:28;;;;;;;0.40;0.10;;;;;;;12.42;97.49;99927.00;5060951;28;20113;-85
2022/12/31 01:10:00;;;;;;;;;;;;;;;;;;;;;
2022/12/31 01:14:21;;;;;;;1.95;0.10;;;;;;;12.54;95.83;99920.91;5059960;28;20067;-87
2022/12/31 01:23:04;;;;;;;0.75;0.13;;;;;;;12.63;95.32;99914.16;5059442;28;20407;-84
2022/12/31 01:26:44;;;;;;;0.88;0.20;;;;;;;12.48;96.40;99927.41;5053184;28;20375;-84
2022/12/31 01:29:53;;;;;;;0.20;0.10;;;;;;;12.49;96.61;99944.00;5052637;28;20099;-84
2022/12/31 01:38:44;;;;;;;0.28;0.10;;;;;;;12.57;96.24;99939.91;5052720;28;20140;-87
2022/12/31 01:43:12;;;;;;;0.50;0.10;;;;;;;12.59;96.33;99960.75;5052647;28;20047;-87
2022/12/31 01:46:32;;;;;;;0.50;0.10;;;;;;;12.77;95.37;99956.84;4992279;28;20052;-87
2022/12/31 01:49:57;;;;;;;0.17;0.00;;;;;;;12.75;95.55;99943.00;5052145;28;20131;-87
2022/12/31 01:53:51;;;;;;;0.30;0.10;;;;;;;12.75;96.16;99953.47;5042584;28;20545;-86
2022/12/31 01:56:58;;;;;;;1.80;0.30;;;;;;;12.72;96.62;99943.22;5059584;28;20047;-86
2022/12/31 02:00:19;;;;;;;0.50;0.10;;;;;;;12.74;96.52;99971.97;5060496;28;20432;-85
2022/12/31 02:03:25;;;;;;;1.38;0.40;;;;;;;12.83;95.86;99944.22;5060762;28;20391;-85
2022/12/31 02:06:45;;;;;;;0.65;0.17;;;;;;;12.80;96.16;99945.31;5061519;28;20068;-85
2022/12/31 02:09:53;;;;;;;1.40;0.43;;;;;;;12.73;96.57;99939.66;5061706;28;20110;-85
2022/12/31 02:13:19;;;;;;;;;;;;;;;;;;;;;
2022/12/31 02:16:52;;;;;;;;;;;;;;;;;;;;;
2022/12/31 02:20:28;;;;;;;1.20;0.30;;;;;;;12.90;95.02;99948.13;5060056;28;20090;-84
2022/12/31 02:23:38;;;;;;;1.55;0.20;;;;;;;12.92;94.68;99954.94;5064854;28;20043;-84
2022/12/31 02:26:54;;;;;;;0.65;0.20;;;;;;;13.01;93.92;99963.91;5066602;28;20090;-84
2022/12/31 02:34:08;;;;;;;1.45;0.22;;;;;;;13.23;92.52;99961.44;5063962;28;20462;-83
2022/12/31 02:37:14;;;;;;;0.35;0.10;;;;;;;13.20;92.67;99959.03;5063319;28;20103;-84
2022/12/31 02:40:20;;;;;;;0.82;0.20;;;;;;;13.16;92.84;99962.81;5055803;28;20044;-84
2022/12/31 02:43:25;;;;;;;1.73;0.75;;;;;;;13.24;92.31;99964.88;5056125;28;20047;-84
2022/12/31 02:46:43;;;;;;;1.27;0.20;;;;;;;13.19;92.84;99967.84;4712630;28;10000096;-84
2022/12/31 02:50:11;;;;;;;1.58;0.13;;;;;;;13.27;91.90;99962.06;5069668;28;20055;-85
2022/12/31 02:53:43;;;;;;;0.60;0.20;;;;;;;13.24;92.15;99970.13;5073059;28;20075;-85
2022/12/31 02:57:16;;;;;;;0.52;0.30;;;;;;;13.18;91.97;99960.94;5074469;28;20094;-85
2022/12/31 03:04:30;;;;;;;0.82;0.10;;;;;;;13.37;90.67;99967.50;5071872;28;20048;-84
2022/12/31 03:07:21;;;;;;;3.10;0.30;;;;;;;13.47;89.98;99973.78;5052051;28;20068;-84
2022/12/31 03:10:47;;;;;;;;;;;;;;;;;;;;;
2022/12/31 03:14:05;;;;;;;1.33;0.20;;;;;;;13.81;87.64;99958.13;5050967;28;20113;-83
2022/12/31 03:17:40;;;;;;;0.80;0.15;;;;;;;13.66;88.43;99954.88;5050736;28;20082;-83
2022/12/31 03:29:11;;;;;;;4.47;0.40;;;;;;;13.86;87.45;99962.09;5040855;28;20051;-84
2022/12/31 03:37:35;;;;;;;0.63;0.20;;;;;;;13.85;87.97;99975.38;5040626;28;20048;-84
2022/12/31 03:41:07;;;;;;;1.02;0.20;;;;;;;13.82;88.10;99970.34;5050437;28;20522;-83
2022/12/31 03:45:08;;;;;;;2.60;0.20;;;;;;;13.84;88.21;99985.00;5050409;28;20154;-83
2022/12/31 03:48:29;;;;;;;1.10;0.20;;;;;;;13.76;89.25;99973.41;4969733;28;20058;-83
2022/12/31 03:51:33;;;;;;;1.70;0.20;;;;;;;13.76;89.63;99982.13;4993392;28;20136;-84
2022/12/31 04:05:30;;;;;;;0.95;0.20;;;;;;;13.91;90.28;99995.91;5050460;28;20047;-84
2022/12/31 04:10:13;;;;;;;;;;;;;;;;;;;;;
2022/12/31 04:24:07;;;;;;;;;;;;;;;;;;;;;
2022/12/31 04:28:51;;;;;;;1.98;0.35;;;;;;;14.50;84.38;99992.34;4901356;29;20058;-85
2022/12/31 04:32:35;;;;;;;1.50;0.40;;;;;;;14.46;84.36;100012.78;4910747;29;20059;-82
2022/12/31 04:36:16;;;;;;;0.95;0.10;;;;;;;14.54;83.79;100009.59;5050187;28;20491;-83
2022/12/31 04:52:44;;;;;;;1.25;0.40;;;;;;;14.74;82.13;100011.53;6264778;21;1330542;-78
2022/12/31 04:55:48;;;;;;;2.22;0.20;;;;;;;14.87;81.64;100016.69;6306164;22;20030;-78
2022/12/31 04:58:51;;;;;;;1.67;0.30;;;;;;;14.80;81.93;100015.47;6306341;22;20400;-78
2022/12/31 05:01:55;;;;;;;0.98;0.30;;;;;;;14.74;82.76;100026.47;6304129;22;20090;-79
2022/12/31 05:04:58;;;;;;;1.33;0.20;;;;;;;14.87;81.79;100037.75;6305948;22;20105;-77
2022/12/31 05:08:01;;;;;;;2.30;0.60;;;;;;;14.94;81.61;100033.66;6306273;22;20030;-77
2022/12/31 05:11:08;;;;;;;1.35;0.30;;;;;;;14.89;82.46;100062.97;6308336;22;20069;-78
2022/12/31 05:14:13;;;;;;;2.55;0.50;;;;;;;14.89;82.47;100044.53;6308345;22;20400;-77
2022/12/31 05:17:19;;;;;;;1.20;0.20;;;;;;;14.90;82.24;100026.97;6308028;22;20073;-78
2022/12/31 05:20:23;;;;;;;5.60;0.55;;;;;;;15.01;81.42;100044.56;6307112;22;20050;-78
2022/12/31 05:23:27;;;;;;;1.50;0.60;;;;;;;14.99;81.42;100033.28;6308185;22;20033;-80
2022/12/31 05:26:31;;;;;;;1.25;0.73;;;;;;;15.20;79.86;100038.69;6308336;22;20396;-79
2022/12/31 05:29:34;;;;;;;3.42;0.32;;;;;;;15.17;79.63;100023.94;6307718;22;20025;-80
2022/12/31 05:32:38;;;;;;;3.00;0.40;;;;;;;14.99;80.63;100026.22;6306315;22;20058;-80
2022/12/31 05:35:48;;;;;;;3.50;0.47;;;;;;;14.99;80.53;100036.75;6307290;22;20025;-79
2022/12/31 05:38:52;;;;;;;1.58;0.30;;;;;;;14.98;80.86;100057.94;6306916;22;20087;-80
2022/12/31 05:41:55;;;;;;;2.35;0.57;;;;;;;15.11;80.06;100056.84;6305337;22;20022;-81
2022/12/31 05:44:58;;;;;;;2.05;0.38;;;;;;;15.06;80.22;100050.28;6307673;22;20080;-81
2022/12/31 05:48:02;;;;;;;3.20;0.65;;;;;;;14.94;80.93;100060.00;6307251;22;20439;-80
2022/12/31 05:51:05;;;;;;;2.45;0.40;;;;;;;15.16;79.67;100058.31;6307572;22;20069;-79
2022/12/31 05:54:09;;;;;;;2.63;0.30;;;;;;;15.04;79.93;100071.47;6301246;22;20132;-80
2022/12/31 05:57:13;;;;;;;5.82;1.00;;;;;;;15.13;79.14;100077.81;6301286;22;20085;-80
2022/12/31 06:00:17;;;;;;;2.05;0.65;;;;;;;15.31;78.21;100071.09;6301298;22;20409;-81
2022/12/31 06:03:22;;;;;;;2.00;0.43;;;;;;;15.25;78.37;100083.91;6300855;22;20030;-81
2022/12/31 06:06:26;;;;;;;3.85;0.60;;;;;;;15.09;79.26;100077.22;6300497;22;20179;-80
2022/12/31 06:09:29;;;;;;;2.55;0.38;;;;;;;15.13;79.27;100077.00;6298718;22;20102;-81
2022/12/31 06:12:33;;;;;;;4.53;0.77;;;;;;;15.33;78.68;100079.72;6299446;22;20022;-81
2022/12/31 06:15:44;;;;;;;2.88;0.85;;;;;;;15.21;79.85;100093.84;6299226;22;20114;-80
2022/12/31 06:18:49;;;;;;;4.22;0.73;;;;;;;15.29;79.01;100090.63;6299249;22;20030;-79
2022/12/31 06:21:53;;;;;;;2.15;0.47;;;;;;;15.20;79.43;100075.53;6298557;22;20026;-79
2022/12/31 06:24:56;;;;;;;2.50;0.50;;;;;;;15.02;80.22;100086.53;6300081;22;20084;-79
2022/12/31 06:27:59;;;;;;;2.92;0.50;;;;;;;15.12;79.29;100099.81;6300453;22;20542;-79
2022/12/31 06:31:06;;;;;;;2.13;0.55;;;;;;;15.35;77.37;100090.97;6299848;22;20075;-80
2022/12/31 06:34:09;;;;;;;2.50;0.57;;;;;;;15.46;76.18;100084.84;6299669;22;20031;-79
2022/12/31 06:37:12;;;;;;;1.92;0.65;;;;;;;15.44;76.10;100099.09;6299537;22;20029;-80
2022/12/31 06:40:16;;;;;;;4.78;0.80;;;;;;;15.57;75.70;100099.78;6300255;22;20026;-79
2022/12/31 06:43:21;;;;;;;2.75;0.68;;;;;;;15.71;74.65;100099.56;6299672;22;20037;-80
2022/12/31 06:46:25;;;;;;;3.47;0.90;;;;;;;15.71;74.44;100096.09;6298973;22;20092;-79
2022/12/31 06:49:29;;;;;;;1.90;0.43;;;;;;;15.66;74.78;100090.31;6300538;22;20494;-79
2022/12/31 06:52:39;;;;;;;1.55;0.43;;;;;;;15.64;74.66;100106.25;6300483;22;20026;-79
2022/12/31 06:55:42;;;;;;;3.17;0.50;;;;;;;15.58;75.18;100102.31;6300275;22;20126;-79
2022/12/31 06:58:46;;;;;;;2.88;0.50;;;;;;;15.66;74.83;100098.22;6300995;22;20022;-79
2022/12/31 07:02:34;;;;;;;3.22;0.55;;;;;;;15.66;74.66;100104.31;6300788;22;20073;-79
2022/12/31 07:05:51;;;;;;;2.90;0.90;;;;;;;15.67;74.65;100108.69;6252044;22;20093;-79
2022/12/31 07:09:17;;;;;;;3.15;0.80;;;;;;;15.58;75.17;100114.66;6300725;22;20030;-79
2022/12/31 07:13:00;;;;;;;1.92;0.60;;;;;;;15.70;74.38;100121.63;6300411;22;20018;-79
2022/12/31 07:16:31;;;;;;;3.40;0.50;;;;;;;15.72;74.08;100122.31;6300383;22;20091;-79
2022/12/31 07:19:55;;;;;;;4.53;0.73;;;;;;;15.68;74.45;100135.88;6300546;22;20173;-80
2022/12/31 07:22:59;;;;;;;5.40;0.95;;;;;;;15.79;73.50;100136.72;6297159;22;20312;-80
2022/12/31 07:26:14;;;;;;;3.35;0.50;;;;;;;15.95;72.62;100130.16;6300128;22;20090;-82
2022/12/31 07:29:44;;;;;;;4.10;0.93;;;;;;;15.88;73.00;100124.56;6298563;22;20050;-81
2022/12/31 07:33:22;;;;;;;4.32;0.70;;;;;;;15.92;72.72;100149.75;6299744;22;20022;-82
2022/12/31 07:36:36;;;;;;;2.97;0.60;;;;;;;15.86;72.81;100138.81;6298816;22;20069;-80
2022/12/31 07:39:39;;;;;;;;;;;;;;;15.83;73.45;100141.72;6299810;22;20038;-80
2022/12/31 07:42:57;;;;;;;2.83;0.82;;;;;;;15.84;73.46;100138.13;6297167;22;19937;-77
2022/12/31 07:46:28;;;;;;;1.90;0.70;;;;;;;15.98;73.00;100133.41;6300796;22;20092;-75
2022/12/31 07:49:33;;;;;;;3.08;0.85;;;;;;;16.03;72.52;100146.22;6305412;22;20102;-78
2022/12/31 07:52:38;;;;;;;4.32;2.20;;;;;;;16.32;72.02;100154.41;6303932;22;20240;-78
2022/12/31 07:55:41;;;;;;;9.00;5.05;;;;;;;16.31;72.06;100168.56;6305045;22;20556;-76
2022/12/31 07:59:08;;;;;;;3.35;1.42;;;;;;;16.11;72.59;100166.69;6306365;22;20065;-79
2022/12/31 08:02:14;;;;;;;4.22;1.33;;;;;;;15.89;72.97;100188.66;6306346;22;20103;-84
2022/12/31 08:05:36;;;;;;;4.50;1.10;;;;;;;15.86;72.94;100171.31;6305858;22;20034;-82
2022/12/31 08:08:52;;;;;;;4.22;0.93;;;;;;;15.95;71.98;100169.72;6306379;22;20026;-86
2022/12/31 08:12:00;;;;;;;4.88;2.30;;;;;;;15.84;73.02;100172.41;6300254;22;20507;-84
2022/12/31 08:15:12;;;;;;;8.25;2.20;;;;;;;15.67;73.67;100171.94;6298486;22;20026;-83
2022/12/31 08:18:15;;;;;;;4.13;2.03;;;;;;;15.80;72.77;100164.72;6297959;22;20314;-82
2022/12/31 08:21:31;;;;;;;7.68;6.25;;;;;;;15.85;72.62;100171.44;6297661;22;20069;-83
2022/12/31 08:25:10;;;;;;;8.30;5.57;;;;;;;15.76;73.08;100158.03;6298490;22;20022;-82
2022/12/31 08:28:32;;;;;;;3.53;0.90;;;;;;;15.86;72.21;100170.47;6298507;22;20022;-80
2022/12/31 08:31:49;;;;;;;4.07;1.20;;;;;;;15.78;72.75;100181.63;6297636;22;20513;-80
2022/12/31 08:35:30;;;;;;;7.18;2.35;;;;;;;15.83;72.69;100183.91;6300277;22;20399;-81
2022/12/31 08:38:59;;;;;;;2.65;0.88;;;;;;;15.81;72.74;100215.66;6300145;22;20027;-80
2022/12/31 08:42:16;;;;;;;4.47;1.00;;;;;;;15.89;72.35;100207.13;6304093;22;20557;-81
2022/12/31 08:45:37;;;;;;;2.83;0.77;;;;;;;15.78;72.91;100208.00;6304001;22;20026;-81
2022/12/31 08:48:42;;;;;;;2.42;0.80;;;;;;;15.93;72.12;100213.84;6303907;22;20038;-76
2022/12/31 08:51:46;;;;;;;3.78;1.58;;;;;;;15.97;71.90;100207.38;6304101;22;20026;-82
2022/12/31 08:54:50;;;;;;;2.72;0.90;;;;;;;15.90;72.41;100217.56;6303798;22;20034;-83
2022/12/31 08:57:58;;;;;;;7.65;2.92;;;;;;;15.84;72.74;100202.22;6304406;22;20025;-82
2022/12/31 09:01:07;;;;;;;5.88;2.78;;;;;;;15.82;72.64;100225.22;6304276;22;20029;-82
2022/12/31 09:09:02;;;;;;;2.97;0.93;;;;;;;16.11;70.92;100230.81;6267472;22;20102;-81
2022/12/31 09:12:27;;;;;;;4.30;1.40;;;;;;;16.01;71.44;100225.44;6305392;22;20022;-81
2022/12/31 09:15:48;;;;;;;4.53;1.45;;;;;;;15.98;71.56;100230.97;6305714;22;20062;-81
2022/12/31 09:18:54;;;;;;;;;;;;;;;15.98;71.71;100214.31;6306339;22;20029;-81
2022/12/31 09:26:39;;;;;;;3.58;1.80;;;;;;;16.12;70.86;100236.97;6301278;22;20098;-81
2022/12/31 09:30:15;;;;;;;6.13;1.67;;;;;;;16.18;70.18;100242.59;6302030;22;20444;-80
2022/12/31 09:33:41;;;;;;;2.70;0.88;;;;;;;16.12;70.60;100236.97;6300965;22;20022;-80
2022/12/31 09:36:51;;;;;;;6.80;1.50;;;;;;;16.15;70.43;100253.38;6303319;22;20022;-82
2022/12/31 09:40:09;;;;;;;4.75;1.40;;;;;;;16.27;69.60;100256.81;6306788;22;20100;-82
2022/12/31 09:43:34;;;;;;;4.60;1.25;;;;;;;16.26;70.00;100265.69;6305213;22;20029;-82
2022/12/31 09:47:04;;;;;;;5.32;0.93;;;;;;;16.16;70.06;100275.31;6307424;22;20018;-81
2022/12/31 09:50:19;;;;;;;4.70;1.20;;;;;;;16.27;69.69;100284.06;6307732;22;20072;-80
2022/12/31 09:53:35;;;;;;;2.28;0.80;;;;;;;16.22;69.71;100277.47;6307627;22;20089;-84
2022/12/31 09:56:47;;;;;;;4.15;1.13;;;;;;;16.36;69.35;100281.63;6306156;22;20088;-82
2022/12/31 09:59:59;;;;;;;4.30;1.00;;;;;;;16.41;68.86;100280.31;6306516;22;20038;-81
2022/12/31 10:03:33;;;;;;;2.78;0.70;;;;;;;16.36;69.44;100282.47;6307578;22;20022;-81
2022/12/31 10:07:01;;;;;;;3.50;0.88;;;;;;;16.50;69.07;100284.00;6305666;22;20080;-82
2022/12/31 10:10:29;;;;;;;3.70;1.02;;;;;;;16.51;68.67;100302.34;6307407;22;20026;-82
2022/12/31 10:13:48;;;;;;;3.10;0.80;;;;;;;16.73;67.38;100268.94;6308081;22;20111;-82
2022/12/31 10:17:28;;;;;;;3.25;0.90;;;;;;;16.77;67.27;100286.22;6307277;22;20474;-81
2022/12/31 10:20:47;;;;;;;5.78;2.58;;;;;;;16.87;66.91;100265.19;6307097;22;20092;-81
2022/12/31 10:24:12;;;;;;;4.68;1.17;;;;;;;16.84;67.50;100268.06;6307153;22;20073;-81
2022/12/31 10:27:35;;;;;;;6.07;2.00;;;;;;;16.88;66.96;100265.06;6307248;22;20185;-81
2022/12/31 10:30:47;;;;;;;5.63;2.45;;;;;;;16.91;66.67;100271.88;6306989;22;20064;-81
2022/12/31 10:34:13;;;;;;;5.35;2.35;;;;;;;16.85;66.83;100285.59;6306437;22;20026;-83
2022/12/31 10:37:23;;;;;;;5.70;2.00;;;;;;;16.81;67.18;100290.28;6307132;22;20360;-78
2022/12/31 10:40:55;;;;;;;7.35;1.25;;;;;;;16.80;67.02;100280.69;6306273;22;20100;-78
2022/12/31 10:44:23;;;;;;;4.47;0.85;;;;;;;16.73;67.16;100279.50;6306133;22;20025;-78
2022/12/31 10:47:49;;;;;;;3.00;1.20;;;;;;;16.75;67.04;100274.94;6306047;22;20080;-77
2022/12/31 10:51:31;;;;;;;4.35;0.95;;;;;;;16.69;67.21;100283.34;6306251;22;20082;-77
2022/12/31 10:59:25;;;;;;;2.65;0.85;;;;;;;16.65;67.29;100280.09;6304179;22;20125;-77
2022/12/31 11:02:57;;;;;;;2.90;0.95;;;;;;;16.60;67.53;100299.94;6301399;22;20084;-77
2022/12/31 11:06:36;;;;;;;3.85;1.40;;;;;;;16.64;67.39;100304.00;6301592;22;20026;-78
2022/12/31 11:10:17;;;;;;;3.70;1.10;;;;;;;16.68;67.28;100286.94;6302533;22;20029;-78
2022/12/31 11:13:42;;;;;;;4.88;0.80;;;;;;;16.57;67.56;100295.75;6211012;22;20170;-77
2022/12/31 11:17:21;;;;;;;4.40;1.05;;;;;;;16.64;67.22;100296.06;6300760;22;20072;-78
2022/12/31 11:20:59;;;;;;;5.22;1.95;;;;;;;16.65;67.01;100288.00;6301805;22;20022;-78
2022/12/31 11:24:12;;;;;;;3.55;1.08;;;;;;;16.46;67.84;100290.47;6302112;22;20133;-78
2022/12/31 11:27:30;;;;;;;4.22;0.95;;;;;;;16.51;67.68;100297.06;6301517;22;20022;-77
2022/12/31 11:31:02;;;;;;;4.72;0.68;;;;;;;16.64;66.76;100280.25;6302034;22;20046;-77
2022/12/31 11:34:33;;;;;;;3.55;1.13;;;;;;;16.65;66.67;100287.19;6301718;22;20088;-75
2022/12/31 11:37:50;;;;;;;6.47;1.52;;;;;;;16.61;66.84;100301.59;6304787;22;20500;-79
2022/12/31 11:41:48;;;;;;;3.42;0.80;;;;;;;16.64;66.62;100281.06;6306010;22;20025;-77
2022/12/31 11:45:01;;;;;;;5.03;1.63;;;;;;;16.71;66.28;100265.56;6215742;22;20038;-75
2022/12/31 11:48:54;;;;;;;4.13;1.30;;;;;;;16.77;66.29;100274.81;6306043;22;20022;-76
2022/12/31 11:52:29;;;;;;;4.30;1.23;;;;;;;16.90;65.62;100265.75;6215485;22;20486;-75
2022/12/31 11:56:01;;;;;;;;;;;;;;;16.91;65.39;100261.31;6306267;22;20026;-77
2022/12/31 11:59:10;;;;;;;8.63;2.50;;;;;;;17.01;65.14;100271.97;6305837;22;20252;-76
2022/12/31 12:02:24;;;;;;;6.65;4.07;;;;;;;16.88;65.92;100295.88;6305893;22;20475;-76
2022/12/31 12:05:28;;;;;;;7.88;3.00;;;;;;;16.86;65.85;100293.38;6305961;22;20026;-77
2022/12/31 12:08:32;;;;;;;3.72;1.27;;;;;;;17.03;64.70;100280.59;6305863;22;20096;-79
2022/12/31 12:11:40;;;;;;;4.72;1.90;;;;;;;16.91;65.52;100293.84;6305694;22;20506;-76
2022/12/31 12:14:48;;;;;;;6.00;1.83;;;;;;;17.02;65.11;100278.91;6305817;22;20398;-77
2022/12/31 12:17:53;;;;;;;5.60;1.15;;;;;;;17.12;64.82;100264.81;6305654;22;20029;-76
2022/12/31 12:21:04;;;;;;;3.55;0.90;;;;;;;17.05;64.40;100270.75;6305550;22;20069;-75
2022/12/31 12:24:24;;;;;;;3.53;0.88;;;;;;;17.15;64.33;100261.06;6304542;22;20359;-76
2022/12/31 12:27:30;;;;;;;5.57;1.25;;;;;;;17.14;64.18;100238.28;6304774;22;20025;-76
2022/12/31 12:30:37;;;;;;;6.80;1.15;;;;;;;17.24;64.07;100252.38;6305755;22;20415;-76
2022/12/31 12:33:43;;;;;;;4.20;0.80;;;;;;;17.11;64.81;100243.81;6305627;22;20022;-76
2022/12/31 12:36:47;;;;;;;3.95;0.95;;;;;;;17.15;64.83;100218.81;6305542;22;20072;-74
2022/12/31 12:40:01;;;;;;;5.78;1.10;;;;;;;16.98;65.64;100219.41;6305578;22;20262;-77
2022/12/31 12:43:05;;;;;;;4.47;1.17;;;;;;;17.08;65.60;100210.56;6304369;22;20058;-75
2022/12/31 12:46:43;;;;;;;3.50;0.65;;;;;;;17.11;65.33;100225.31;6305590;22;20026;-75
2022/12/31 12:49:51;;;;;;;4.72;1.10;;;;;;;17.13;66.07;100229.53;6305672;22;20026;-76
2022/12/31 12:53:25;;;;;;;3.92;1.30;;;;;;;17.24;65.07;100236.53;6305392;22;20102;-75
2022/12/31 12:56:34;;;;;;;;;;;;;;;17.12;65.79;100245.47;6294380;22;20053;-76
2022/12/31 13:00:00;;;;;;;6.72;2.75;;;;;;;17.09;66.04;100238.66;6305603;22;20403;-76
2022/12/31 13:07:32;;;;;;;6.32;1.25;;;;;;;17.01;66.69;100254.31;6307364;22;20406;-76
2022/12/31 13:10:59;;;;;;;4.25;1.10;;;;;;;16.93;66.97;100241.72;6305547;22;20019;-76
2022/12/31 13:14:18;;;;;;;3.30;0.88;;;;;;;16.90;67.17;100239.34;6307624;22;20056;-75
2022/12/31 13:17:57;;;;;;;7.85;2.90;;;;;;;16.91;67.16;100234.91;6307455;22;20022;-75
2022/12/31 13:21:35;;;;;;;4.93;1.00;;;;;;;16.93;66.66;100228.53;6307166;22;20402;-76
2022/12/31 13:24:55;;;;;;;3.00;0.90;;;;;;;16.86;66.84;100231.81;6306007;22;20057;-76
2022/12/31 13:28:03;;;;;;;2.70;0.68;;;;;;;16.89;66.40;100228.94;6306955;22;20402;-76
2022/12/31 13:31:16;;;;;;;3.10;0.73;;;;;;;16.85;66.57;100231.00;6307164;22;20546;-75
2022/12/31 13:34:29;;;;;;;4.30;0.93;;;;;;;16.90;66.60;100244.63;6307135;22;20053;-73
2022/12/31 13:37:39;;;;;;;1.88;0.70;;;;;;;16.90;66.74;100241.97;6307060;22;20022;-75
2022/12/31 13:41:01;;;;;;;3.63;0.68;;;;;;;16.95;66.06;100250.38;6307238;22;20041;-74
2022/12/31 13:44:18;;;;;;;2.15;0.80;;;;;;;16.82;66.10;100260.28;6306995;22;20026;-75
2022/12/31 13:47:44;;;;;;;4.22;0.85;;;;;;;16.80;66.00;100279.84;6307038;22;20164;-75
2022/12/31 13:51:00;;;;;;;5.55;1.33;;;;;;;16.74;66.23;100268.78;6306754;22;20054;-75
2022/12/31 13:54:20;;;;;;;2.97;1.15;;;;;;;16.79;65.44;100267.63;6307161;22;20454;-78
2022/12/31 13:57:32;;;;;;;6.72;2.28;;;;;;;16.62;66.23;100276.88;6306913;22;20151;-76
2022/12/31 14:00:52;;;;;;;4.43;1.70;;;;;;;16.51;66.45;100272.47;6306917;22;20072;-76
2022/12/31 14:04:14;;;;;;;5.15;2.10;;;;;;;16.55;66.34;100299.47;6306966;22;20348;-76
2022/12/31 14:07:31;;;;;;;4.50;1.00;;;;;;;16.47;65.91;100281.63;6306711;22;20025;-75
2022/12/31 14:10:53;;;;;;;4.93;1.15;;;;;;;16.52;66.22;100288.19;6305599;22;20065;-76
2022/12/31 14:14:11;;;;;;;6.43;1.73;;;;;;;16.42;66.02;100276.69;6306598;22;20025;-77
2022/12/31 14:17:28;;;;;;;4.50;1.70;;;;;;;16.39;66.50;100298.03;6307119;22;20022;-77
2022/12/31 14:20:48;;;;;;;3.83;1.20;;;;;;;16.31;66.54;100287.28;6306968;22;20058;-76
2022/12/31 14:24:14;;;;;;;6.25;1.52;;;;;;;16.32;66.54;100286.31;6305653;22;20101;-75
2022/12/31 14:27:27;;;;;;;4.97;2.42;;;;;;;16.18;66.73;100291.88;6305612;22;20468;-75
2022/12/31 14:30:40;;;;;;;6.63;2.42;;;;;;;16.22;66.33;100293.28;6307023;22;20052;-76
2022/12/31 14:33:49;;;;;;;5.00;1.70;;;;;;;16.08;67.31;100318.13;6306609;22;20022;-75
2022/12/31 14:37:14;;;;;;;5.45;1.23;;;;;;;15.99;66.92;100317.03;6306376;22;20022;-82
2022/12/31 14:40:29;;;;;;;4.07;1.17;;;;;;;15.95;67.35;100315.63;6306765;22;20026;-81
2022/12/31 14:44:12;;;;;;;6.38;1.75;;;;;;;15.85;67.43;100325.19;6304032;22;20466;-83
2022/12/31 14:47:25;;;;;;;3.53;1.38;;;;;;;15.84;67.86;100322.66;6303628;22;20088;-79
2022/12/31 14:50:32;;;;;;;4.90;1.55;;;;;;;15.65;68.08;100326.69;6306162;22;20026;-82
2022/12/31 14:53:36;;;;;;;4.00;1.30;;;;;;;15.59;68.04;100320.09;6304373;22;20026;-80
2022/12/31 14:56:42;;;;;;;2.83;0.90;;;;;;;15.61;68.21;100319.97;6305351;22;20421;-81
2022/12/31 15:00:04;;;;;;;3.78;1.05;;;;;;;15.55;68.44;100325.72;6304893;22;20026;-80
2022/12/31 15:03:13;;;;;;;6.93;4.10;;;;;;;15.56;68.35;100330.84;6305155;22;20407;-79
2022/12/31 15:06:23;;;;;;;5.78;2.75;;;;;;;15.61;68.23;100321.78;6306030;22;20026;-80
2022/12/31 15:09:32;;;;;;;12.73;8.13;;;;;;;15.50;68.49;100325.22;6306757;22;20057;-80
2022/12/31 15:13:06;;;;;;;16.90;13.13;;;;;;;15.51;68.79;100317.22;6305971;22;20022;-77
2022/12/31 15:16:31;;;;;;;12.68;9.13;;;;;;;15.54;68.66;100301.16;6294111;22;20103;-76
2022/12/31 15:20:09;;;;;;;6.78;3.50;;;;;;;15.49;68.17;100307.72;6306101;22;20471;-79
2022/12/31 15:23:20;;;;;;;5.57;2.42;;;;;;;15.41;69.03;100305.69;6306272;22;20026;-81
2022/12/31 15:26:27;;;;;;;5.10;1.90;;;;;;;15.30;68.86;100318.81;6305695;22;20038;-80
2022/12/31 15:29:35;;;;;;;5.70;1.52;;;;;;;15.14;69.57;100332.31;6305882;22;20076;-79
2022/12/31 15:32:45;;;;;;;6.72;3.25;;;;;;;15.29;68.62;100332.97;6306024;22;20476;-73
2022/12/31 15:35:53;;;;;;;4.00;1.25;;;;;;;15.21;68.63;100330.06;6306287;22;20026;-75
2022/12/31 15:39:08;;;;;;;3.20;1.27;;;;;;;15.16;68.53;100324.31;6306791;22;20022;-75
2022/12/31 15:42:33;;;;;;;4.10;1.50;;;;;;;15.15;68.79;100335.78;6306490;22;20026;-74
2022/12/31 15:45:40;;;;;;;5.20;1.77;;;;;;;15.18;67.87;100335.53;6306772;22;20026;-71
2022/12/31 15:48:51;;;;;;;5.88;2.70;;;;;;;15.23;67.77;100341.31;6306621;22;20022;-72
2022/12/31 15:52:00;;;;;;;6.60;3.83;;;;;;;15.29;67.61;100335.59;6306472;22;20080;-78
2022/12/31 15:55:05;;;;;;;5.68;2.10;;;;;;;15.31;66.57;100336.31;6306730;22;20079;-72
2022/12/31 15:58:16;;;;;;;5.00;3.90;;;;;;;15.25;66.90;100348.16;6306637;22;20091;-73
2022/12/31 16:01:32;;;;;;;5.93;2.85;;;;;;;15.21;66.90;100343.22;6306477;22;20025;-72
2022/12/31 16:04:41;;;;;;;6.03;1.50;;;;;;;15.16;66.72;100337.47;6306457;22;20026;-74
2022/12/31 16:07:46;;;;;;;3.83;1.40;;;;;;;15.17;66.67;100339.13;6305441;22;20080;-73
2022/12/31 16:10:49;;;;;;;4.30;2.20;;;;;;;15.16;66.64;100332.19;6306511;22;20073;-72
2022/12/31 16:13:54;;;;;;;4.38;1.75;;;;;;;15.15;66.56;100336.59;6306495;22;20022;-72
2022/12/31 16:16:59;;;;;;;5.85;1.25;;;;;;;15.13;66.66;100340.34;6306406;22;20072;-73
2022/12/31 16:20:24;;;;;;;4.00;1.30;;;;;;;15.18;66.03;100340.81;6305516;22;20037;-72
2022/12/31 16:23:27;;;;;;;5.15;1.52;;;;;;;15.13;66.03;100340.34;6306446;22;20076;-76
2022/12/31 16:26:45;;;;;;;7.93;1.38;;;;;;;15.05;66.80;100335.63;6306346;22;20025;-71
2022/12/31 16:29:56;;;;;;;4.72;1.23;;;;;;;15.02;66.48;100347.22;6305532;22;20076;-74
2022/12/31 16:33:04;;;;;;;3.35;0.90;;;;;;;14.97;66.73;100338.00;6306524;22;20101;-72
2022/12/31 16:36:20;;;;;;;4.18;0.88;;;;;;;14.96;66.81;100337.13;6305445;22;20089;-71
2022/12/31 16:39:35;;;;;;;4.00;1.30;;;;;;;15.05;66.45;100338.25;6305018;22;20038;-70
2022/12/31 16:42:38;;;;;;;3.20;0.90;;;;;;;15.00;66.42;100330.69;6304701;22;20092;-71
2022/12/31 16:45:45;;;;;;;4.70;2.35;;;;;;;15.03;66.41;100343.63;6286622;22;20038;-71
2022/12/31 16:48:54;;;;;;;3.28;1.33;;;;;;;15.01;66.19;100340.28;6304571;22;20076;-71
2022/12/31 16:52:03;;;;;;;7.90;2.17;;;;;;;15.02;66.27;100336.69;6304588;22;20073;-71
2022/12/31 16:55:18;;;;;;;5.93;1.83;;;;;;;14.98;66.61;100340.50;6306393;22;20046;-71
2022/12/31 16:58:41;;;;;;;5.00;3.17;;;;;;;14.93;66.88;100325.97;6305216;22;20069;-72
2022/12/31 17:01:45;;;;;;;3.60;1.38;;;;;;;14.97;66.51;100338.00;6306083;22;20353;-70
2022/12/31 17:04:55;;;;;;;4.20;1.35;;;;;;;15.08;65.62;100338.84;6305412;22;20026;-71
2022/12/31 17:08:22;;;;;;;4.78;1.52;;;;;;;14.98;66.49;100340.50;6305374;22;20073;-69
2022/12/31 17:12:01;;;;;;;8.98;2.92;;;;;;;14.88;67.12;100334.22;6304720;22;20026;-69
2022/12/31 17:15:26;;;;;;;4.28;1.23;;;;;;;14.83;66.06;100339.81;6248709;22;20396;-70
2022/12/31 17:18:36;;;;;;;4.18;1.90;;;;;;;14.87;65.89;100346.56;6305788;22;20029;-70
2022/12/31 17:21:47;;;;;;;4.95;1.65;;;;;;;14.91;65.81;100352.44;6305772;22;20084;-70